createdAt,value
2023-05-01T00:00:22.387Z,100.00
2023-05-01T00:02:54.588Z,100.00
2023-05-01T00:05:22.942Z,100.00
2023-05-01T00:07:51.128Z,100.00
2023-05-01T00:10:20.694Z,100.00
2023-05-01T00:12:48.825Z,100.00
2023-05-01T00:15:17.367Z,100.00
2023-05-01T00:17:45.543Z,100.00
2023-05-01T00:20:14.438Z,100.00
2023-05-01T00:22:42.606Z,100.00
2023-05-01T00:25:11.785Z,100.00
2023-05-01T00:27:41.291Z,100.00
2023-05-01T00:30:10.233Z,100.00
2023-05-01T00:32:38.860Z,100.00
2023-05-01T00:35:07.556Z,100.00
2023-05-01T00:37:35.778Z,100.00
2023-05-01T00:40:05.349Z,100.00
2023-05-01T00:42:36.545Z,100.00
2023-05-01T00:45:07.051Z,100.00
2023-05-01T00:47:37.046Z,100.00
2023-05-01T00:50:06.263Z,100.00
2023-05-01T00:52:34.494Z,100.00
2023-05-01T00:55:02.782Z,100.00
2023-05-01T00:57:31.009Z,100.00
2023-05-01T00:59:59.350Z,100.00
2023-05-01T01:02:28.959Z,100.00
2023-05-01T01:04:57.198Z,100.00
2023-05-01T01:07:41.228Z,100.00
2023-05-01T01:10:18.525Z,100.00
2023-05-01T01:12:54.730Z,100.00
2023-05-01T01:15:30.484Z,100.00
2023-05-01T01:18:09.268Z,100.00
2023-05-01T01:20:48.170Z,100.00
2023-05-01T01:23:44.172Z,100.00
2023-05-01T01:26:29.612Z,100.00
2023-05-01T01:29:32.334Z,100.00
2023-05-01T01:32:10.643Z,100.00
2023-05-01T01:34:46.284Z,100.00
2023-05-01T01:37:20.959Z,100.00
2023-05-01T01:39:54.755Z,100.00
2023-05-01T01:42:31.797Z,100.00
2023-05-01T01:45:05.120Z,100.00
2023-05-01T01:47:35.718Z,100.00
2023-05-01T01:50:09.647Z,100.00
2023-05-01T01:52:40.099Z,100.00
2023-05-01T01:55:12.779Z,100.00
2023-05-01T01:57:44.082Z,100.00
2023-05-01T02:00:16.587Z,100.00
2023-05-01T02:02:49.262Z,100.00
2023-05-01T02:05:20.744Z,100.00
2023-05-01T02:07:51.600Z,100.00
2023-05-01T02:10:21.564Z,100.00
2023-05-01T02:12:52.311Z,100.00
2023-05-01T02:15:21.792Z,100.00
2023-05-01T02:17:52.459Z,100.00
2023-05-01T02:20:23.302Z,100.00
2023-05-01T02:22:53.833Z,100.00
2023-05-01T02:25:22.352Z,100.00
2023-05-01T02:27:56.928Z,100.00
2023-05-01T02:30:25.261Z,100.00
2023-05-01T02:32:54.102Z,100.00
2023-05-01T02:35:23.736Z,100.00
2023-05-01T02:37:52.517Z,100.00
2023-05-01T02:40:21.356Z,100.00
2023-05-01T02:42:53.215Z,100.00
2023-05-01T02:45:26.937Z,100.00
2023-05-01T02:47:59.889Z,100.00
2023-05-01T02:50:30.798Z,100.00
2023-05-01T02:53:00.164Z,100.00
2023-05-01T02:55:42.863Z,100.00
2023-05-01T02:58:16.621Z,100.00
2023-05-01T03:00:45.750Z,100.00
2023-05-01T03:03:14.204Z,100.00
2023-05-01T03:05:44.063Z,100.00
2023-05-01T03:08:12.889Z,100.00
2023-05-01T03:10:42.741Z,100.00
2023-05-01T03:13:11.737Z,100.00
2023-05-01T03:15:40.349Z,100.00
2023-05-01T03:18:09.668Z,100.00
2023-05-01T03:20:37.986Z,100.00
2023-05-01T03:23:07.777Z,100.00
2023-05-01T03:25:35.894Z,100.00
2023-05-01T03:28:04.978Z,100.00
2023-05-01T03:30:35.371Z,100.00
2023-05-01T03:33:04.422Z,100.00
2023-05-01T03:35:34.112Z,100.00
2023-05-01T03:38:02.583Z,100.00
2023-05-01T03:40:50.721Z,100.00
2023-05-01T03:43:37.376Z,100.00
2023-05-01T03:46:11.133Z,100.00
2023-05-01T03:48:39.321Z,100.00
2023-05-01T03:51:08.005Z,100.00
2023-05-01T03:53:37.949Z,100.00
2023-05-01T03:56:09.524Z,100.00
2023-05-01T03:58:37.721Z,100.00
2023-05-01T04:01:06.458Z,100.00
2023-05-01T04:03:38.401Z,100.00
2023-05-01T04:06:07.717Z,100.00
2023-05-01T04:08:36.146Z,100.00
2023-05-01T04:11:04.328Z,100.00
2023-05-01T04:13:33.924Z,100.00
2023-05-01T04:16:03.406Z,100.00
2023-05-01T04:18:32.188Z,100.00
2023-05-01T04:21:01.022Z,100.00
2023-05-01T04:23:29.273Z,100.00
2023-05-01T04:25:59.995Z,100.00
2023-05-01T04:28:31.124Z,100.00
2023-05-01T04:31:00.928Z,100.00
2023-05-01T04:33:29.417Z,100.00
2023-05-01T04:35:57.617Z,100.00
2023-05-01T04:38:26.183Z,100.00
2023-05-01T04:40:56.723Z,100.00
2023-05-01T04:43:24.975Z,100.00
2023-05-01T04:45:53.123Z,100.00
2023-05-01T04:48:22.636Z,100.00
2023-05-01T04:50:51.471Z,100.00
2023-05-01T04:53:19.704Z,100.00
2023-05-01T04:55:48.239Z,100.00
2023-05-01T04:58:17.903Z,100.00
2023-05-01T05:00:49.056Z,100.00
2023-05-01T05:03:23.719Z,100.00
2023-05-01T05:05:51.949Z,100.00
2023-05-01T05:08:20.521Z,100.00
2023-05-01T05:10:59.377Z,100.00
2023-05-01T05:13:31.488Z,100.00
2023-05-01T05:16:03.820Z,100.00
2023-05-01T05:18:34.366Z,100.00
2023-05-01T05:21:05.434Z,100.00
2023-05-01T05:23:34.113Z,100.00
2023-05-01T05:26:03.029Z,100.00
2023-05-01T05:28:33.023Z,100.00
2023-05-01T05:31:01.745Z,100.00
2023-05-01T05:33:30.553Z,100.00
2023-05-01T05:36:01.108Z,100.00
2023-05-01T05:38:35.135Z,100.00
2023-05-01T05:41:05.043Z,100.00
2023-05-01T05:43:33.595Z,100.00
2023-05-01T05:46:02.479Z,100.00
2023-05-01T05:48:33.576Z,100.00
2023-05-01T05:51:03.298Z,100.00
2023-05-01T05:53:31.576Z,100.00
2023-05-01T05:55:59.997Z,100.00
2023-05-01T05:58:28.815Z,100.00
2023-05-01T06:00:57.146Z,100.00
2023-05-01T06:03:25.550Z,100.00
2023-05-01T06:05:58.440Z,100.00
2023-05-01T06:08:28.514Z,100.00
2023-05-01T06:10:58.996Z,100.00
2023-05-01T06:13:28.527Z,100.00
2023-05-01T06:15:57.455Z,100.00
2023-05-01T06:18:26.265Z,99.38
2023-05-01T06:20:54.570Z,99.10
2023-05-01T06:23:22.889Z,100.00
2023-05-01T06:26:15.608Z,97.05
2023-05-01T06:28:43.903Z,96.57
2023-05-01T06:31:12.162Z,92.82
2023-05-01T06:33:47.403Z,90.21
2023-05-01T06:36:23.722Z,85.36
2023-05-01T06:38:51.927Z,86.37
2023-05-01T06:41:22.185Z,84.78
2023-05-01T06:43:50.413Z,83.63
2023-05-01T06:46:18.920Z,81.93
2023-05-01T06:48:49.001Z,80.36
2023-05-01T06:51:17.240Z,77.84
2023-05-01T06:53:46.380Z,75.66
2023-05-01T06:56:14.720Z,77.85
2023-05-01T06:58:44.389Z,74.04
2023-05-01T07:01:12.679Z,69.20
2023-05-01T07:03:41.294Z,69.94
2023-05-01T07:06:09.482Z,69.02
2023-05-01T07:08:37.569Z,63.41
2023-05-01T07:11:05.889Z,60.26
2023-05-01T07:13:33.920Z,64.56
2023-05-01T07:16:03.488Z,67.63
2023-05-01T07:18:31.636Z,64.30
2023-05-01T07:20:59.839Z,61.78
2023-05-01T07:23:27.965Z,57.72
2023-05-01T07:25:57.057Z,58.41
2023-05-01T07:28:25.121Z,57.34
2023-05-01T07:30:53.379Z,57.33
2023-05-01T07:33:23.604Z,57.22
2023-05-01T07:35:52.033Z,58.39
2023-05-01T07:38:20.134Z,51.02
2023-05-01T07:40:48.451Z,50.63
2023-05-01T07:43:16.848Z,46.93
2023-05-01T07:45:56.133Z,47.00
2023-05-01T07:48:26.121Z,47.78
2023-05-01T07:50:54.705Z,42.57
2023-05-01T07:53:23.750Z,42.95
2023-05-01T07:55:52.235Z,43.29
2023-05-01T07:58:20.826Z,44.95
2023-05-01T08:00:49.014Z,40.81
2023-05-01T08:03:17.239Z,39.60
2023-05-01T08:05:46.972Z,43.31
2023-05-01T08:08:20.586Z,43.17
2023-05-01T08:10:49.107Z,44.39
2023-05-01T08:13:17.389Z,45.02
2023-05-01T08:15:47.208Z,43.12
2023-05-01T08:18:20.524Z,43.04
2023-05-01T08:20:50.722Z,43.69
2023-05-01T08:23:18.995Z,42.94
2023-05-01T08:25:51.092Z,41.49
2023-05-01T08:28:20.932Z,38.36
2023-05-01T08:30:50.493Z,38.39
2023-05-01T08:33:18.917Z,37.68
2023-05-01T08:35:47.061Z,36.82
2023-05-01T08:38:16.967Z,31.67
2023-05-01T08:40:49.959Z,33.73
2023-05-01T08:43:19.138Z,28.78
2023-05-01T08:45:49.012Z,29.04
2023-05-01T08:48:19.608Z,33.26
2023-05-01T08:50:48.756Z,28.60
2023-05-01T08:53:20.879Z,30.16
2023-05-01T08:55:51.829Z,33.86
2023-05-01T08:58:20.568Z,31.79
2023-05-01T09:00:49.023Z,33.18
2023-05-01T09:03:18.855Z,31.10
2023-05-01T09:05:47.897Z,31.84
2023-05-01T09:08:16.072Z,30.95
2023-05-01T09:10:48.870Z,31.52
2023-05-01T09:13:17.274Z,30.22
2023-05-01T09:15:45.689Z,30.55
2023-05-01T09:18:14.094Z,34.24
2023-05-01T09:20:43.152Z,36.36
2023-05-01T09:23:11.282Z,36.50
2023-05-01T09:25:39.598Z,36.46
2023-05-01T09:28:09.209Z,39.85
2023-05-01T09:30:38.757Z,37.02
2023-05-01T09:33:11.195Z,37.42
2023-05-01T09:35:54.937Z,37.00
2023-05-01T09:38:24.758Z,39.32
2023-05-01T09:40:56.672Z,39.33
2023-05-01T09:43:31.628Z,38.91
2023-05-01T09:46:09.529Z,38.67
2023-05-01T09:48:38.835Z,38.62
2023-05-01T09:51:32.056Z,38.34
2023-05-01T09:54:01.705Z,37.52
2023-05-01T09:56:31.586Z,36.10
2023-05-01T09:59:16.096Z,36.83
2023-05-01T10:01:46.650Z,33.49
2023-05-01T10:04:15.710Z,28.75
2023-05-01T10:06:43.985Z,32.05
2023-05-01T10:09:17.562Z,33.49
2023-05-01T10:11:50.054Z,31.88
2023-05-01T10:14:20.477Z,33.63
2023-05-01T10:16:49.703Z,35.55
2023-05-01T10:19:18.862Z,31.96
2023-05-01T10:21:47.167Z,29.51
2023-05-01T10:24:17.076Z,31.17
2023-05-01T10:26:45.935Z,32.30
2023-05-01T10:29:14.458Z,34.80
2023-05-01T10:31:44.049Z,34.53
2023-05-01T10:34:17.915Z,36.01
2023-05-01T10:36:49.032Z,37.19
2023-05-01T10:39:33.597Z,36.57
2023-05-01T10:42:03.821Z,37.36
2023-05-01T10:44:32.570Z,39.63
2023-05-01T10:47:22.111Z,38.20
2023-05-01T10:50:07.238Z,36.45
2023-05-01T10:53:08.586Z,35.22
2023-05-01T10:55:37.498Z,34.23
2023-05-01T10:58:05.751Z,33.27
2023-05-01T11:00:34.453Z,36.12
2023-05-01T11:03:37.530Z,38.09
2023-05-01T11:06:09.387Z,35.63
2023-05-01T11:08:38.948Z,35.66
2023-05-01T11:11:44.635Z,37.65
2023-05-01T11:14:12.764Z,37.64
2023-05-01T11:16:48.311Z,36.83
2023-05-01T11:19:49.639Z,39.79
2023-05-01T11:22:18.419Z,41.09
2023-05-01T11:24:48.064Z,42.21
2023-05-01T11:27:17.094Z,42.32
2023-05-01T11:29:51.037Z,41.69
2023-05-01T11:32:27.344Z,39.79
2023-05-01T11:34:57.806Z,38.90
2023-05-01T11:37:41.332Z,38.50
2023-05-01T11:40:21.502Z,39.13
2023-05-01T11:42:50.102Z,38.76
2023-05-01T11:45:19.932Z,38.65
2023-05-01T11:47:49.296Z,35.76
2023-05-01T11:50:18.970Z,34.77
2023-05-01T11:52:49.731Z,32.50
2023-05-01T11:55:18.120Z,33.81
2023-05-01T11:57:50.102Z,33.88
2023-05-01T12:00:28.434Z,33.46
2023-05-01T12:02:58.773Z,31.82
2023-05-01T12:05:29.584Z,30.13
2023-05-01T12:08:09.920Z,32.51
2023-05-01T12:10:38.962Z,31.82
2023-05-01T12:13:08.723Z,35.14
2023-05-01T12:15:38.351Z,37.19
2023-05-01T12:18:06.981Z,36.34
2023-05-01T12:20:41.704Z,36.04
2023-05-01T12:23:11.775Z,33.73
2023-05-01T12:25:41.081Z,32.13
2023-05-01T12:28:11.455Z,32.92
2023-05-01T12:30:40.363Z,36.49
2023-05-01T12:33:13.292Z,38.74
2023-05-01T12:35:45.495Z,39.99
2023-05-01T12:38:15.414Z,41.46
2023-05-01T12:40:53.916Z,40.06
2023-05-01T12:43:23.140Z,41.51
2023-05-01T12:45:54.905Z,42.09
2023-05-01T12:48:26.888Z,41.35
2023-05-01T12:50:58.096Z,41.94
2023-05-01T12:53:27.715Z,43.52
2023-05-01T12:55:57.591Z,44.24
2023-05-01T12:58:36.153Z,43.85
2023-05-01T13:01:04.617Z,45.58
2023-05-01T13:03:38.389Z,43.74
2023-05-01T13:06:10.337Z,43.59
2023-05-01T13:08:40.173Z,43.87
2023-05-01T13:11:13.727Z,43.59
2023-05-01T13:13:42.608Z,44.80
2023-05-01T13:16:12.932Z,44.68
2023-05-01T13:18:48.938Z,45.48
2023-05-01T13:21:22.092Z,44.95
2023-05-01T13:23:54.915Z,43.53
2023-05-01T13:26:28.483Z,43.33
2023-05-01T13:28:58.729Z,43.55
2023-05-01T13:31:27.623Z,43.44
2023-05-01T13:33:58.747Z,43.53
2023-05-01T13:36:33.520Z,46.88
2023-05-01T13:39:02.166Z,43.77
2023-05-01T13:41:30.609Z,42.92
2023-05-01T13:43:58.851Z,42.11
2023-05-01T13:46:28.573Z,42.24
2023-05-01T13:48:58.358Z,42.16
2023-05-01T13:51:29.861Z,42.20
2023-05-01T13:53:58.341Z,41.73
2023-05-01T13:56:26.969Z,41.06
2023-05-01T13:58:55.306Z,43.58
2023-05-01T14:01:24.053Z,42.16
2023-05-01T14:03:52.491Z,41.23
2023-05-01T14:06:22.242Z,43.35
2023-05-01T14:08:54.501Z,43.41
2023-05-01T14:11:22.680Z,47.19
2023-05-01T14:13:52.146Z,43.33
2023-05-01T14:16:25.107Z,45.04
2023-05-01T14:18:55.461Z,45.05
2023-05-01T14:21:25.661Z,42.99
2023-05-01T14:23:56.750Z,42.64
2023-05-01T14:26:25.185Z,44.60
2023-05-01T14:28:54.731Z,46.70
2023-05-01T14:31:27.353Z,44.95
2023-05-01T14:33:58.005Z,44.76
2023-05-01T14:36:26.781Z,44.03
2023-05-01T14:38:57.883Z,45.80
2023-05-01T14:41:26.223Z,44.58
2023-05-01T14:43:54.842Z,47.81
2023-05-01T14:46:30.832Z,46.59
2023-05-01T14:48:59.544Z,48.09
2023-05-01T14:51:28.625Z,47.96
2023-05-01T14:53:58.305Z,47.76
2023-05-01T14:56:26.510Z,49.14
2023-05-01T14:58:54.578Z,47.77
2023-05-01T15:01:22.877Z,49.01
2023-05-01T15:03:51.234Z,49.88
2023-05-01T15:06:19.378Z,49.17
2023-05-01T15:08:47.568Z,47.59
2023-05-01T15:11:18.736Z,48.27
2023-05-01T15:13:48.959Z,48.36
2023-05-01T15:16:17.681Z,47.70
2023-05-01T15:18:45.937Z,46.35
2023-05-01T15:21:14.096Z,46.88
2023-05-01T15:23:45.273Z,47.33
2023-05-01T15:26:13.926Z,48.54
2023-05-01T15:28:43.448Z,47.61
2023-05-01T15:31:11.654Z,47.84
2023-05-01T15:33:39.940Z,47.80
2023-05-01T15:36:08.739Z,48.51
2023-05-01T15:38:37.104Z,48.68
2023-05-01T15:41:05.591Z,47.58
2023-05-01T15:43:33.652Z,48.74
2023-05-01T15:46:03.707Z,48.43
2023-05-01T15:48:32.772Z,49.31
2023-05-01T15:51:00.972Z,49.74
2023-05-01T15:53:29.156Z,48.97
2023-05-01T15:55:58.591Z,48.83
2023-05-01T15:58:26.799Z,48.79
2023-05-01T16:00:55.830Z,49.46
2023-05-01T16:03:26.266Z,49.68
2023-05-01T16:05:56.259Z,50.68
2023-05-01T16:08:24.562Z,50.65
2023-05-01T16:10:53.967Z,50.58
2023-05-01T16:13:22.252Z,50.57
2023-05-01T16:15:50.386Z,51.33
2023-05-01T16:18:21.306Z,52.29
2023-05-01T16:20:53.518Z,51.32
2023-05-01T16:23:22.237Z,52.41
2023-05-01T16:25:50.394Z,51.99
2023-05-01T16:28:18.781Z,51.90
2023-05-01T16:30:47.231Z,52.18
2023-05-01T16:33:18.951Z,51.96
2023-05-01T16:35:48.575Z,52.66
2023-05-01T16:38:18.567Z,52.63
2023-05-01T16:40:48.215Z,52.62
2023-05-01T16:43:16.632Z,54.17
2023-05-01T16:45:44.730Z,53.83
2023-05-01T16:48:15.388Z,53.52
2023-05-01T16:50:43.637Z,53.49
2023-05-01T16:53:11.772Z,54.12
2023-05-01T16:55:41.388Z,54.58
2023-05-01T16:58:09.666Z,54.04
2023-05-01T17:00:37.728Z,54.26
2023-05-01T17:03:06.044Z,54.47
2023-05-01T17:05:34.265Z,55.01
2023-05-01T17:08:02.428Z,56.58
2023-05-01T17:10:30.455Z,55.92
2023-05-01T17:12:59.949Z,57.07
2023-05-01T17:15:28.174Z,57.47
2023-05-01T17:17:56.369Z,56.37
2023-05-01T17:20:24.622Z,56.66
2023-05-01T17:22:52.902Z,58.23
2023-05-01T17:25:21.130Z,58.81
2023-05-01T17:27:49.207Z,60.97
2023-05-01T17:30:19.518Z,60.71
2023-05-01T17:32:48.050Z,60.24
2023-05-01T17:35:16.920Z,60.66
2023-05-01T17:37:45.337Z,62.16
2023-05-01T17:40:13.863Z,63.86
2023-05-01T17:42:42.177Z,65.20
2023-05-01T17:45:11.153Z,66.03
2023-05-01T17:47:43.197Z,69.87
2023-05-01T17:50:13.029Z,70.87
2023-05-01T17:52:42.293Z,72.64
2023-05-01T17:55:11.152Z,74.05
2023-05-01T17:57:40.520Z,75.89
2023-05-01T18:00:11.554Z,77.60
2023-05-01T18:02:45.039Z,78.36
2023-05-01T18:05:14.975Z,78.58
2023-05-01T18:07:43.194Z,78.52
2023-05-01T18:10:12.554Z,79.40
2023-05-01T18:12:42.319Z,80.11
2023-05-01T18:15:11.671Z,81.68
2023-05-01T18:17:40.353Z,82.62
2023-05-01T18:20:11.041Z,81.07
2023-05-01T18:22:39.882Z,83.79
2023-05-01T18:25:09.429Z,83.22
2023-05-01T18:27:38.323Z,83.52
2023-05-01T18:30:07.812Z,86.26
2023-05-01T18:32:47.609Z,85.88
2023-05-01T18:35:19.341Z,85.15
2023-05-01T18:37:48.766Z,86.61
2023-05-01T18:40:17.566Z,86.69
2023-05-01T18:42:49.206Z,89.18
2023-05-01T18:45:18.679Z,89.27
2023-05-01T18:47:47.966Z,89.70
2023-05-01T18:50:23.590Z,89.81
2023-05-01T18:52:52.854Z,91.18
2023-05-01T18:55:22.323Z,90.47
2023-05-01T18:57:51.345Z,90.94
2023-05-01T19:00:24.113Z,91.55
2023-05-01T19:02:54.055Z,91.19
2023-05-01T19:05:25.747Z,92.33
2023-05-01T19:07:55.714Z,92.34
2023-05-01T19:10:24.716Z,92.43
2023-05-01T19:12:54.660Z,95.13
2023-05-01T19:15:23.712Z,93.98
2023-05-01T19:17:54.009Z,94.54
2023-05-01T19:20:27.240Z,92.84
2023-05-01T19:22:57.245Z,91.62
2023-05-01T19:25:29.720Z,92.25
2023-05-01T19:27:59.983Z,91.92
2023-05-01T19:30:28.463Z,92.10
2023-05-01T19:32:59.019Z,92.34
2023-05-01T19:35:29.202Z,93.22
2023-05-01T19:37:59.119Z,92.07
2023-05-01T19:40:27.438Z,96.44
2023-05-01T19:43:01.580Z,95.35
2023-05-01T19:45:31.718Z,96.08
2023-05-01T19:48:01.171Z,98.22
2023-05-01T19:50:33.541Z,98.70
2023-05-01T19:53:02.722Z,98.52
2023-05-01T19:55:31.067Z,99.21
2023-05-01T19:57:59.646Z,100.00
2023-05-01T20:00:29.313Z,100.00
2023-05-01T20:02:58.443Z,100.00
2023-05-01T20:05:28.479Z,100.00
2023-05-01T20:08:00.146Z,100.00
2023-05-01T20:10:28.934Z,100.00
2023-05-01T20:13:01.682Z,100.00
2023-05-01T20:15:31.430Z,100.00
2023-05-01T20:18:01.655Z,100.00
2023-05-01T20:20:30.520Z,100.00
2023-05-01T20:23:12.556Z,100.00
2023-05-01T20:25:41.540Z,100.00
2023-05-01T20:28:15.279Z,100.00
2023-05-01T20:30:44.881Z,100.00
2023-05-01T20:33:14.350Z,99.68
2023-05-01T20:35:42.513Z,100.00
2023-05-01T20:38:12.152Z,100.00
2023-05-01T20:40:41.301Z,98.50
2023-05-01T20:43:09.991Z,97.92
2023-05-01T20:45:38.638Z,98.62
2023-05-01T20:48:08.251Z,99.92
2023-05-01T20:50:36.626Z,100.00
2023-05-01T20:53:05.060Z,100.00
2023-05-01T20:55:34.613Z,100.00
2023-05-01T20:58:02.985Z,100.00
2023-05-01T21:00:31.298Z,100.00
2023-05-01T21:03:00.007Z,100.00
2023-05-01T21:05:28.862Z,100.00
2023-05-01T21:07:59.135Z,100.00
2023-05-01T21:10:27.273Z,100.00
2023-05-01T21:12:57.923Z,100.00
2023-05-01T21:15:27.059Z,100.00
2023-05-01T21:17:55.251Z,100.00
2023-05-01T21:20:31.941Z,100.00
2023-05-01T21:23:01.351Z,100.00
2023-05-01T21:25:31.918Z,100.00
2023-05-01T21:28:03.609Z,100.00
2023-05-01T21:30:33.700Z,100.00
2023-05-01T21:33:03.381Z,100.00
2023-05-01T21:35:31.972Z,100.00
2023-05-01T21:38:00.466Z,100.00
2023-05-01T21:40:28.629Z,100.00
2023-05-01T21:42:57.495Z,100.00
2023-05-01T21:45:27.988Z,100.00
2023-05-01T21:47:56.131Z,100.00
2023-05-01T21:50:24.891Z,100.00
2023-05-01T21:52:53.046Z,100.00
2023-05-01T21:55:22.658Z,100.00
2023-05-01T21:57:51.080Z,100.00
2023-05-01T22:00:21.244Z,100.00
2023-05-01T22:02:52.134Z,100.00
2023-05-01T22:05:23.208Z,100.00
2023-05-01T22:07:52.573Z,100.00
2023-05-01T22:10:21.120Z,100.00
2023-05-01T22:12:50.340Z,100.00
2023-05-01T22:15:18.529Z,100.00
2023-05-01T22:17:47.044Z,100.00
2023-05-01T22:20:16.751Z,100.00
2023-05-01T22:22:44.761Z,100.00
2023-05-01T22:25:13.307Z,100.00
2023-05-01T22:27:41.927Z,100.00
2023-05-01T22:30:11.250Z,100.00
2023-05-01T22:32:39.526Z,100.00
2023-05-01T22:35:09.030Z,100.00
2023-05-01T22:37:38.577Z,100.00
2023-05-01T22:40:08.398Z,100.00
2023-05-01T22:42:36.642Z,100.00
2023-05-01T22:45:05.238Z,100.00
2023-05-01T22:47:33.410Z,100.00
2023-05-01T22:50:01.922Z,100.00
2023-05-01T22:52:30.290Z,100.00
2023-05-01T22:54:59.744Z,100.00
2023-05-01T22:57:27.817Z,100.00
2023-05-01T22:59:56.067Z,100.00
2023-05-01T23:02:24.360Z,100.00
2023-05-01T23:04:52.516Z,100.00
2023-05-01T23:07:20.791Z,100.00
2023-05-01T23:09:48.937Z,100.00
2023-05-01T23:12:22.721Z,100.00
2023-05-01T23:14:50.811Z,100.00
2023-05-01T23:17:18.845Z,100.00
2023-05-01T23:19:47.300Z,100.00
2023-05-01T23:22:15.528Z,100.00
2023-05-01T23:24:47.663Z,100.00
2023-05-01T23:27:16.870Z,100.00
2023-05-01T23:29:55.300Z,100.00
2023-05-01T23:32:27.983Z,100.00
2023-05-01T23:34:57.626Z,100.00
2023-05-01T23:37:25.705Z,100.00
2023-05-01T23:39:54.372Z,100.00
2023-05-01T23:42:23.393Z,100.00
2023-05-01T23:44:53.033Z,100.00
2023-05-01T23:47:21.698Z,100.00
2023-05-01T23:49:50.357Z,100.00
2023-05-01T23:52:18.422Z,100.00
2023-05-01T23:54:46.517Z,100.00
2023-05-01T23:57:14.577Z,100.00
2023-05-01T23:59:42.718Z,100.00
